Time;durP1;ratioP1;P1;durP2;ratioP2;P2;SDS_P1;SDS_P2;PMS_P1;PMS_P2;Temp;Humidity;BMP_temperature;BMP_pressure;BME280_temperature;BME280_humidity;BME280_pressure;Samples;Min_cycle;Max_cycle;Signal;HPM_P1;HPM_P2
2023/06/22 00:00:55;;;;;;;13.43;12.20;;;21.50;99.90;;;;;;4860186;29;20035;-82
2023/06/22 00:03:23;;;;;;;13.38;11.98;;;21.60;99.90;;;;;;4860507;29;20033;-83
2023/06/22 00:05:49;;;;;;;13.85;12.40;;;21.80;99.90;;;;;;4859176;29;20033;-83
2023/06/22 00:08:16;;;;;;;12.90;11.70;;;21.60;99.90;;;;;;4860217;29;20040;-83
2023/06/22 00:10:41;;;;;;;14.90;13.35;;;21.70;99.90;;;;;;4860163;29;20086;-83
2023/06/22 00:13:08;;;;;;;15.15;13.55;;;21.60;99.90;;;;;;4859395;29;20034;-83
2023/06/22 00:15:34;;;;;;;13.48;12.27;;;21.70;99.90;;;;;;4860218;29;20026;-83
2023/06/22 00:18:00;;;;;;;14.68;13.18;;;21.70;99.90;;;;;;4860053;29;20037;-82
2023/06/22 00:20:27;;;;;;;14.27;12.88;;;21.50;99.90;;;;;;4859400;29;20104;-83
2023/06/22 00:22:53;;;;;;;14.57;13.18;;;21.40;99.90;;;;;;4862379;29;20050;-82
2023/06/22 00:25:19;;;;;;;13.75;12.45;;;22.10;99.90;;;;;;4863858;29;20367;-83
2023/06/22 00:27:44;;;;;;;16.75;13.95;;;21.30;99.90;;;;;;4862765;29;20038;-83
2023/06/22 00:30:10;;;;;;;13.88;12.45;;;21.40;99.90;;;;;;4863898;29;20034;-83
2023/06/22 00:32:36;;;;;;;14.27;12.98;;;21.40;99.90;;;;;;4862917;29;20030;-82
2023/06/22 00:35:02;;;;;;;14.93;13.40;;;21.40;99.90;;;;;;4863730;29;20030;-82
2023/06/22 00:37:29;;;;;;;14.52;13.27;;;21.30;99.90;;;;;;4863601;29;20029;-82
2023/06/22 00:39:55;;;;;;;15.38;13.30;;;21.60;99.90;;;;;;4862980;29;20441;-82
2023/06/22 00:42:21;;;;;;;14.20;12.85;;;21.40;99.90;;;;;;4863736;29;20029;-82
2023/06/22 00:44:46;;;;;;;15.13;12.82;;;21.40;99.90;;;;;;4863003;29;20036;-83
2023/06/22 00:47:15;;;;;;;14.10;12.90;;;21.40;99.90;;;;;;4862951;29;20034;-82
2023/06/22 00:49:41;;;;;;;14.30;12.82;;;21.40;99.90;;;;;;4863457;29;20030;-82
2023/06/22 00:52:09;;;;;;;13.63;12.30;;;21.50;99.90;;;;;;4863403;29;20037;-83
2023/06/22 00:54:36;;;;;;;13.38;12.02;;;21.40;99.90;;;;;;4862656;29;20057;-82
2023/06/22 00:57:04;;;;;;;12.43;11.32;;;21.60;99.90;;;;;;4863253;29;20030;-83
2023/06/22 00:59:32;;;;;;;13.27;12.05;;;21.40;99.90;;;;;;4863181;29;20058;-82
2023/06/22 01:01:57;;;;;;;13.07;11.98;;;21.40;99.90;;;;;;4862125;29;20029;-82
2023/06/22 01:04:33;;;;;;;15.02;12.05;;;21.30;99.90;;;;;;4863247;29;20026;-82
2023/06/22 01:07:05;;;;;;;11.82;10.82;;;21.40;99.90;;;;;;4862660;29;20033;-83
2023/06/22 01:09:35;;;;;;;13.25;11.80;;;21.40;99.90;;;;;;4862600;29;20033;-82
2023/06/22 01:12:04;;;;;;;12.85;11.38;;;21.40;99.90;;;;;;4862973;29;20082;-83
2023/06/22 01:14:46;;;;;;;13.07;11.82;;;21.40;99.90;;;;;;4863120;29;20197;-82
2023/06/22 01:17:16;;;;;;;12.02;10.95;;;21.90;99.90;;;;;;4862833;29;20037;-83
2023/06/22 01:19:46;;;;;;;13.75;12.13;;;21.20;99.90;;;;;;4863116;29;20044;-82
2023/06/22 01:22:16;;;;;;;;;;;21.80;99.90;;;;;;4862765;29;20041;-83
2023/06/22 01:24:53;;;;;;;12.32;11.27;;;21.20;99.90;;;;;;4862756;29;19927;-82
2023/06/22 01:27:51;;;;;;;13.38;11.80;;;21.10;99.90;;;;;;4862734;29;20042;-82
2023/06/22 01:30:19;;;;;;;11.48;10.48;;;21.20;99.90;;;;;;4862260;29;20028;-82
2023/06/22 01:32:45;;;;;;;12.25;11.15;;;21.20;99.90;;;;;;4862553;29;20030;-83
2023/06/22 01:35:12;;;;;;;12.18;11.15;;;21.20;99.90;;;;;;4862706;29;20030;-83
2023/06/22 01:37:38;;;;;;;12.38;11.10;;;21.20;99.90;;;;;;4861999;29;20062;-82
2023/06/22 01:40:06;;;;;;;11.57;10.60;;;22.00;99.90;;;;;;4862296;29;20048;-82
2023/06/22 01:42:32;;;;;;;12.02;10.82;;;21.10;99.90;;;;;;4862472;29;20029;-82
2023/06/22 01:44:59;;;;;;;13.13;11.77;;;21.20;99.90;;;;;;4861629;29;20029;-82
2023/06/22 01:47:25;;;;;;;12.63;11.32;;;21.20;99.90;;;;;;4862470;29;20050;-83
2023/06/22 01:49:51;;;;;;;13.65;11.68;;;21.10;99.90;;;;;;4862011;29;20030;-82
2023/06/22 01:52:18;;;;;;;11.90;10.93;;;21.40;99.90;;;;;;4860943;29;20048;-82
2023/06/22 01:54:43;;;;;;;12.23;11.13;;;22.00;99.90;;;;;;4862313;29;20022;-82
2023/06/22 01:57:10;;;;;;;13.07;11.77;;;21.20;99.90;;;;;;4861407;29;20029;-82
2023/06/22 01:59:50;;;;;;;13.73;12.15;;;21.40;99.90;;;;;;4862193;29;20160;-83
2023/06/22 02:02:20;;;;;;;16.23;11.80;;;20.90;99.90;;;;;;4862358;29;20086;-83
2023/06/22 02:05:09;;;;;;;14.20;11.85;;;21.00;99.90;;;;;;4861261;29;20117;-83
2023/06/22 02:07:42;;;;;;;12.63;11.43;;;21.00;99.90;;;;;;4862160;29;20395;-83
2023/06/22 02:10:12;;;;;;;12.52;11.43;;;21.00;99.90;;;;;;4861964;29;20033;-83
2023/06/22 02:12:38;;;;;;;13.65;12.27;;;21.00;99.90;;;;;;4861630;29;20033;-83
2023/06/22 02:15:05;;;;;;;12.68;11.45;;;21.00;99.90;;;;;;4861796;29;20034;-83
2023/06/22 02:17:33;;;;;;;12.85;11.65;;;20.90;99.90;;;;;;4861159;29;20439;-83
2023/06/22 02:19:58;;;;;;;13.45;11.40;;;20.90;99.90;;;;;;4861191;29;20042;-83
2023/06/22 02:22:24;;;;;;;12.95;11.75;;;21.30;99.90;;;;;;4861813;29;20032;-83
2023/06/22 02:24:50;;;;;;;13.55;11.70;;;21.20;99.90;;;;;;4861383;29;20057;-83
2023/06/22 02:27:15;;;;;;;13.43;11.48;;;21.90;99.90;;;;;;4860996;29;20090;-82
2023/06/22 02:29:41;;;;;;;13.02;11.82;;;21.00;99.90;;;;;;4861435;29;20438;-83
2023/06/22 02:32:07;;;;;;;13.32;12.10;;;21.00;99.90;;;;;;4860948;29;20034;-83
2023/06/22 02:34:33;;;;;;;12.90;11.65;;;21.00;99.90;;;;;;4861305;29;20483;-83
2023/06/22 02:37:00;;;;;;;12.80;11.50;;;21.70;99.90;;;;;;4861435;29;20101;-83
2023/06/22 02:39:26;;;;;;;12.30;10.95;;;20.90;99.90;;;;;;4860932;29;20033;-83
2023/06/22 02:41:53;;;;;;;14.85;12.10;;;21.00;99.90;;;;;;4861158;29;20124;-83
2023/06/22 02:44:19;;;;;;;13.00;11.73;;;20.90;99.90;;;;;;4860912;29;20041;-83
2023/06/22 02:46:45;;;;;;;11.05;10.15;;;20.90;99.90;;;;;;4860395;29;20053;-83
2023/06/22 02:49:11;;;;;;;12.02;10.82;;;21.10;99.90;;;;;;4861376;29;20474;-83
2023/06/22 02:51:53;;;;;;;13.32;11.95;;;22.00;99.90;;;;;;4861222;29;20404;-83
2023/06/22 02:54:19;;;;;;;13.52;12.30;;;20.90;99.90;;;;;;4860446;29;20363;-83
2023/06/22 02:56:44;;;;;;;12.48;11.02;;;21.90;99.90;;;;;;4861144;29;20025;-83
2023/06/22 02:59:10;;;;;;;14.35;12.95;;;21.70;99.90;;;;;;4861267;29;20041;-83
2023/06/22 03:01:39;;;;;;;12.93;11.63;;;21.40;99.90;;;;;;4860214;29;20391;-83
2023/06/22 03:04:09;;;;;;;13.52;12.23;;;20.90;99.90;;;;;;4860937;29;20120;-82
2023/06/22 03:06:35;;;;;;;13.60;12.27;;;21.40;99.90;;;;;;4861022;29;20046;-83
2023/06/22 03:09:03;;;;;;;15.40;13.07;;;21.10;99.90;;;;;;4860137;29;20101;-83
2023/06/22 03:11:32;;;;;;;14.20;12.65;;;20.70;99.90;;;;;;4860836;29;20482;-83
2023/06/22 03:13:59;;;;;;;14.55;13.15;;;20.60;99.90;;;;;;4860620;29;20025;-83
2023/06/22 03:16:25;;;;;;;13.00;11.77;;;21.60;99.90;;;;;;4860588;29;20029;-83
2023/06/22 03:18:51;;;;;;;14.50;13.00;;;20.60;99.90;;;;;;4860791;29;20025;-82
2023/06/22 03:21:16;;;;;;;13.25;11.98;;;20.90;99.90;;;;;;4860897;29;20036;-83
2023/06/22 03:23:43;;;;;;;12.65;11.45;;;20.60;99.90;;;;;;4859931;29;20563;-83
2023/06/22 03:26:09;;;;;;;12.52;11.32;;;20.70;99.90;;;;;;4860447;29;20033;-83
2023/06/22 03:28:35;;;;;;;11.80;10.73;;;20.60;99.90;;;;;;4859958;29;20044;-82
2023/06/22 03:31:00;;;;;;;13.68;12.35;;;20.60;99.90;;;;;;4860275;29;20025;-83
2023/06/22 03:33:26;;;;;;;13.68;11.40;;;20.60;99.90;;;;;;4860846;29;20467;-83
2023/06/22 03:35:51;;;;;;;14.48;11.90;;;20.60;99.90;;;;;;4859794;29;20045;-83
2023/06/22 03:38:17;;;;;;;13.98;12.63;;;20.60;99.90;;;;;;4860475;29;20471;-82
2023/06/22 03:40:43;;;;;;;13.05;11.82;;;20.70;99.90;;;;;;4860335;29;20078;-83
2023/06/22 03:43:09;;;;;;;13.13;11.82;;;20.60;99.90;;;;;;4859474;29;20124;-82
2023/06/22 03:45:34;;;;;;;13.55;12.20;;;20.50;99.90;;;;;;4860327;29;20082;-83
2023/06/22 03:48:01;;;;;;;17.73;12.80;;;20.70;99.90;;;;;;4860189;29;20122;-82
2023/06/22 03:50:27;;;;;;;13.68;12.30;;;20.60;99.90;;;;;;4859900;29;20029;-82
2023/06/22 03:52:52;;;;;;;15.90;13.32;;;20.50;99.90;;;;;;4860086;29;20025;-83
2023/06/22 03:55:20;;;;;;;14.85;13.43;;;20.50;99.90;;;;;;4860525;29;20026;-83
2023/06/22 03:57:45;;;;;;;16.17;14.50;;;20.40;99.90;;;;;;4858500;29;20029;-83
2023/06/22 04:00:11;;;;;;;15.40;12.73;;;20.50;99.90;;;;;;4860568;29;20044;-82
2023/06/22 04:02:37;;;;;;;14.82;13.25;;;20.50;99.90;;;;;;4860183;29;20109;-82
2023/06/22 04:05:02;;;;;;;16.88;13.18;;;20.70;99.90;;;;;;4859098;29;20067;-83
2023/06/22 04:07:28;;;;;;;14.77;13.18;;;20.50;99.90;;;;;;4860258;29;20041;-82
2023/06/22 04:09:53;;;;;;;19.95;13.50;;;20.90;99.90;;;;;;4859956;29;20100;-83
2023/06/22 04:12:19;;;;;;;18.15;13.38;;;20.40;99.90;;;;;;4859357;29;20029;-83
2023/06/22 04:14:44;;;;;;;15.98;14.38;;;20.40;99.90;;;;;;4860177;29;20105;-82
2023/06/22 04:17:14;;;;;;;16.33;14.35;;;20.30;99.90;;;;;;4860339;29;20448;-82
2023/06/22 04:19:40;;;;;;;14.40;12.90;;;20.30;99.90;;;;;;4859445;29;20026;-83
2023/06/22 04:22:07;;;;;;;18.58;14.20;;;20.30;99.90;;;;;;4859893;29;20120;-82
2023/06/22 04:24:33;;;;;;;15.55;12.48;;;20.30;99.90;;;;;;4859909;29;20052;-83
2023/06/22 04:27:02;;;;;;;14.68;13.13;;;20.30;99.90;;;;;;4858919;29;20042;-82
2023/06/22 04:29:29;;;;;;;17.65;14.05;;;20.50;99.90;;;;;;4860333;29;20426;-83
2023/06/22 04:31:58;;;;;;;16.13;13.63;;;20.30;99.90;;;;;;4859262;29;20033;-82
2023/06/22 04:34:26;;;;;;;14.93;13.43;;;20.30;99.90;;;;;;4859817;29;20037;-83
2023/06/22 04:36:51;;;;;;;15.25;13.85;;;20.30;99.90;;;;;;4859710;29;20034;-83
2023/06/22 04:39:18;;;;;;;15.55;13.75;;;20.40;99.90;;;;;;4859136;29;20125;-83
2023/06/22 04:41:45;;;;;;;15.88;13.63;;;20.20;99.90;;;;;;4860168;29;20086;-82
2023/06/22 04:44:23;;;;;;;19.00;14.40;;;20.20;99.90;;;;;;4860040;29;20434;-83
2023/06/22 04:47:03;;;;;;;16.90;14.73;;;20.70;99.90;;;;;;4858887;29;20491;-83
2023/06/22 04:49:33;;;;;;;18.27;14.60;;;20.10;99.90;;;;;;4860261;29;20064;-83
2023/06/22 04:52:02;;;;;;;15.70;14.17;;;20.90;99.90;;;;;;4859538;29;20077;-83
2023/06/22 04:54:28;;;;;;;15.85;14.10;;;20.20;99.90;;;;;;4859053;29;20475;-83
2023/06/22 04:56:56;;;;;;;16.00;14.40;;;20.20;99.90;;;;;;4859568;29;20116;-83
2023/06/22 04:59:30;;;;;;;15.60;14.05;;;20.20;99.90;;;;;;4859931;29;20089;-83
2023/06/22 05:01:57;;;;;;;17.73;14.20;;;20.20;99.90;;;;;;4858548;29;20041;-83
2023/06/22 05:04:23;;;;;;;16.38;14.50;;;20.50;99.90;;;;;;4859584;29;20428;-83
2023/06/22 05:06:50;;;;;;;19.70;14.23;;;20.20;99.90;;;;;;4859615;29;20041;-83
2023/06/22 05:09:16;;;;;;;18.20;15.10;;;20.30;99.90;;;;;;4862341;29;20029;-83
2023/06/22 05:11:41;;;;;;;20.83;14.93;;;20.90;99.90;;;;;;4862950;29;20032;-83
2023/06/22 05:14:07;;;;;;;17.55;15.07;;;20.30;99.90;;;;;;4862068;29;20021;-83
2023/06/22 05:16:33;;;;;;;18.73;15.50;;;20.30;99.90;;;;;;4863061;29;20438;-83
2023/06/22 05:18:58;;;;;;;17.50;15.32;;;20.30;99.90;;;;;;4862608;29;20085;-83
2023/06/22 05:21:26;;;;;;;16.67;14.93;;;20.80;99.90;;;;;;4862295;29;20505;-83
2023/06/22 05:23:52;;;;;;;19.02;16.00;;;20.30;99.90;;;;;;4862398;29;20541;-83
2023/06/22 05:26:19;;;;;;;18.50;15.65;;;20.30;99.90;;;;;;4862881;29;20038;-83
2023/06/22 05:28:45;;;;;;;17.67;15.30;;;20.40;99.90;;;;;;4861835;29;20104;-83
2023/06/22 05:31:15;;;;;;;17.88;15.45;;;20.40;99.90;;;;;;4862694;29;20053;-83
2023/06/22 05:33:42;;;;;;;24.63;15.32;;;20.40;99.90;;;;;;4862481;29;20133;-83
2023/06/22 05:36:09;;;;;;;16.05;14.48;;;20.40;99.90;;;;;;4861911;29;20030;-83
2023/06/22 05:38:34;;;;;;;16.27;14.48;;;20.40;99.90;;;;;;4862786;29;20045;-83
2023/06/22 05:41:00;;;;;;;19.05;14.93;;;20.40;99.90;;;;;;4862321;29;20132;-83
2023/06/22 05:43:26;;;;;;;19.23;13.45;;;20.50;99.90;;;;;;4861935;29;20162;-83
2023/06/22 05:45:51;;;;;;;16.10;14.50;;;20.50;99.90;;;;;;4862192;29;20143;-83
2023/06/22 05:48:17;;;;;;;16.10;14.23;;;20.60;99.90;;;;;;4862220;29;20068;-83
2023/06/22 05:50:42;;;;;;;14.80;13.40;;;20.70;99.90;;;;;;4862101;29;20026;-83
2023/06/22 05:53:08;;;;;;;14.55;13.23;;;20.70;99.90;;;;;;4862177;29;20030;-83
2023/06/22 05:55:34;;;;;;;15.23;13.73;;;20.70;99.90;;;;;;4862094;29;20086;-83
2023/06/22 05:57:59;;;;;;;18.15;13.70;;;20.70;99.90;;;;;;4861299;29;20490;-83
2023/06/22 06:00:25;;;;;;;16.25;14.60;;;20.60;99.90;;;;;;4862123;29;20030;-83
2023/06/22 06:02:51;;;;;;;15.40;13.77;;;20.60;99.90;;;;;;4861959;29;20026;-83
2023/06/22 06:05:16;;;;;;;15.73;14.15;;;20.70;99.90;;;;;;4861472;29;20065;-83
2023/06/22 06:07:43;;;;;;;17.00;12.80;;;20.60;99.90;;;;;;4862101;29;20097;-83
2023/06/22 06:10:09;;;;;;;15.18;13.50;;;20.60;99.90;;;;;;4861780;29;20394;-83
2023/06/22 06:12:35;;;;;;;14.77;13.27;;;20.70;99.90;;;;;;4861887;29;20030;-83
2023/06/22 06:15:01;;;;;;;17.42;13.52;;;20.90;99.90;;;;;;4861647;29;20053;-83
2023/06/22 06:17:27;;;;;;;14.88;13.27;;;20.70;99.90;;;;;;4861027;29;20090;-83
2023/06/22 06:19:52;;;;;;;17.05;13.40;;;20.70;99.90;;;;;;4860929;29;20030;-83
2023/06/22 06:22:20;;;;;;;15.60;13.85;;;20.70;99.90;;;;;;4862105;29;20029;-83
2023/06/22 06:24:45;;;;;;;17.48;13.15;;;20.70;99.90;;;;;;4860763;29;20504;-83
2023/06/22 06:27:11;;;;;;;13.50;12.10;;;20.80;99.90;;;;;;4861721;29;20147;-83
2023/06/22 06:29:37;;;;;;;13.57;12.27;;;20.80;99.90;;;;;;4861679;29;20093;-83
2023/06/22 06:32:02;;;;;;;14.68;13.15;;;20.80;99.90;;;;;;4860406;29;20029;-83
2023/06/22 06:34:28;;;;;;;14.98;13.43;;;20.80;99.90;;;;;;4861145;29;20120;-83
2023/06/22 06:36:53;;;;;;;14.98;12.45;;;20.80;99.90;;;;;;4861341;29;20025;-83
2023/06/22 06:39:20;;;;;;;17.60;12.75;;;20.90;99.90;;;;;;4861163;29;20036;-83
2023/06/22 06:41:46;;;;;;;13.77;12.48;;;20.90;99.90;;;;;;4861121;29;20040;-83
2023/06/22 06:44:11;;;;;;;17.70;13.82;;;21.00;99.90;;;;;;4861302;29;20030;-83
2023/06/22 06:46:37;;;;;;;15.07;13.60;;;21.00;99.90;;;;;;4860645;29;20061;-83
2023/06/22 06:49:03;;;;;;;14.65;13.30;;;21.00;99.90;;;;;;4860980;29;20026;-83
2023/06/22 06:51:29;;;;;;;16.50;14.52;;;21.10;99.90;;;;;;4861248;29;20029;-83
2023/06/22 06:53:54;;;;;;;14.68;13.15;;;21.00;99.90;;;;;;4860064;29;20491;-83
2023/06/22 06:56:20;;;;;;;13.32;12.02;;;21.10;99.90;;;;;;4861355;29;20067;-83
2023/06/22 06:58:46;;;;;;;14.48;12.93;;;21.20;99.90;;;;;;4860662;29;20030;-83
2023/06/22 07:01:12;;;;;;;13.73;12.10;;;21.10;99.90;;;;;;4860419;29;20028;-83
2023/06/22 07:03:38;;;;;;;15.38;12.55;;;21.20;99.90;;;;;;4861219;29;20060;-83
2023/06/22 07:06:04;;;;;;;15.43;13.82;;;21.20;99.90;;;;;;4861080;29;20068;-83
2023/06/22 07:08:29;;;;;;;12.68;11.38;;;21.20;99.90;;;;;;4860177;29;20437;-83
2023/06/22 07:10:55;;;;;;;11.98;10.80;;;21.20;99.90;;;;;;4860657;29;20105;-83
2023/06/22 07:13:21;;;;;;;12.77;11.52;;;21.30;99.90;;;;;;4861018;29;20028;-84
2023/06/22 07:15:46;;;;;;;14.02;11.68;;;21.30;99.90;;;;;;4859512;29;20094;-83
2023/06/22 07:18:12;;;;;;;14.70;10.93;;;21.30;99.90;;;;;;4860813;29;20093;-83
2023/06/22 07:20:39;;;;;;;11.18;10.18;;;21.40;99.90;;;;;;4860142;29;20029;-83
2023/06/22 07:23:05;;;;;;;17.55;12.18;;;21.40;99.90;;;;;;4860238;29;20576;-83
2023/06/22 07:25:30;;;;;;;12.65;11.27;;;21.40;99.90;;;;;;4860789;29;20029;-83
2023/06/22 07:28:07;;;;;;;13.50;10.32;;;21.40;99.90;;;;;;4859782;29;20041;-83
2023/06/22 07:30:33;;;;;;;13.95;12.60;;;21.50;99.90;;;;;;4860761;29;20021;-83
2023/06/22 07:33:03;;;;;;;14.88;13.05;;;21.50;99.90;;;;;;4860452;29;20029;-84
2023/06/22 07:35:30;;;;;;;15.07;12.50;;;21.50;99.90;;;;;;4859975;29;20112;-83
2023/06/22 07:37:56;;;;;;;14.55;12.48;;;21.50;99.90;;;;;;4860231;29;20112;-83
2023/06/22 07:40:22;;;;;;;11.95;10.77;;;21.60;99.90;;;;;;4860486;29;20166;-84
2023/06/22 07:42:51;;;;;;;14.15;12.82;;;21.60;99.90;;;;;;4859155;29;20132;-84
2023/06/22 07:45:17;;;;;;;15.63;14.00;;;21.70;99.90;;;;;;4861064;29;20059;-84
2023/06/22 07:47:43;;;;;;;18.60;15.77;;;21.70;99.90;;;;;;4860364;29;20124;-83
2023/06/22 07:50:09;;;;;;;16.88;13.13;;;21.70;99.90;;;;;;4859691;29;20534;-84
2023/06/22 07:52:35;;;;;;;16.13;14.10;;;21.80;99.90;;;;;;4860318;29;20116;-83
2023/06/22 07:55:02;;;;;;;14.45;13.10;;;21.90;99.90;;;;;;4860081;29;20044;-83
2023/06/22 07:57:33;;;;;;;19.83;14.38;;;21.90;99.90;;;;;;4859713;29;20116;-83
2023/06/22 08:00:06;;;;;;;18.08;16.17;;;21.80;99.90;;;;;;4843295;29;20061;-83
2023/06/22 08:02:31;;;;;;;19.08;17.08;;;22.00;99.90;;;;;;4860255;29;20033;-83
2023/06/22 08:04:57;;;;;;;18.60;15.57;;;22.00;99.90;;;;;;4859097;29;20052;-83
2023/06/22 08:07:22;;;;;;;19.65;16.95;;;22.00;99.90;;;;;;4859955;29;20117;-83
2023/06/22 08:09:49;;;;;;;17.58;15.68;;;22.00;99.90;;;;;;4859027;29;20029;-83
2023/06/22 08:12:15;;;;;;;21.17;15.45;;;22.10;99.90;;;;;;4859927;29;20037;-83
2023/06/22 08:14:42;;;;;;;18.80;16.27;;;22.30;99.90;;;;;;4860305;29;20037;-83
2023/06/22 08:17:07;;;;;;;20.73;14.20;;;22.10;99.90;;;;;;4859169;29;20033;-83
2023/06/22 08:19:33;;;;;;;17.90;16.10;;;22.20;99.90;;;;;;4859774;29;20021;-83
2023/06/22 08:21:58;;;;;;;18.55;15.90;;;22.10;99.90;;;;;;4859614;29;20036;-83
2023/06/22 08:24:24;;;;;;;15.05;13.48;;;22.20;99.90;;;;;;4858760;29;20061;-83
2023/06/22 08:26:51;;;;;;;15.68;13.98;;;22.20;99.90;;;;;;4859999;29;20157;-83
2023/06/22 08:29:17;;;;;;;13.85;12.55;;;22.20;99.90;;;;;;4860060;29;20036;-83
2023/06/22 08:31:43;;;;;;;17.10;14.98;;;22.30;99.90;;;;;;4858945;29;20033;-83
2023/06/22 08:34:08;;;;;;;18.75;14.85;;;22.30;99.90;;;;;;4859994;29;20467;-83
2023/06/22 08:36:41;;;;;;;14.32;12.30;;;22.30;99.90;;;;;;4859904;29;20033;-83
2023/06/22 08:39:08;;;;;;;14.98;13.48;;;22.40;99.90;;;;;;4858797;29;20029;-83
2023/06/22 08:41:34;;;;;;;13.88;12.50;;;22.40;99.90;;;;;;4859867;29;20034;-83
2023/06/22 08:43:59;;;;;;;15.30;12.90;;;22.40;99.90;;;;;;4862118;29;20085;-83
2023/06/22 08:46:30;;;;;;;15.30;13.73;;;22.40;99.90;;;;;;4862805;29;20033;-83
2023/06/22 08:48:56;;;;;;;;;;;22.40;99.90;;;;;;4863771;29;20047;-83
2023/06/22 08:51:22;;;;;;;17.45;14.88;;;22.40;99.90;;;;;;4863501;29;19908;-83
2023/06/22 08:53:47;;;;;;;21.58;16.65;;;22.40;99.90;;;;;;4862599;29;20104;-83
2023/06/22 08:56:13;;;;;;;19.98;15.80;;;23.00;99.90;;;;;;4863504;29;20022;-83
2023/06/22 08:58:38;;;;;;;14.63;12.95;;;22.50;99.90;;;;;;4863373;29;20502;-83
2023/06/22 09:01:04;;;;;;;15.43;13.77;;;22.50;99.90;;;;;;4862034;29;20438;-83
2023/06/22 09:03:30;;;;;;;12.25;11.15;;;22.50;99.90;;;;;;4863112;29;20065;-83
2023/06/22 09:05:56;;;;;;;12.93;10.32;;;22.60;99.90;;;;;;4862899;29;20033;-83
2023/06/22 09:08:21;;;;;;;11.27;10.15;;;22.50;99.90;;;;;;4862463;29;20041;-83
2023/06/22 09:10:47;;;;;;;12.43;9.52;;;22.60;99.90;;;;;;4863025;29;20033;-83
2023/06/22 09:13:12;;;;;;;12.15;9.95;;;22.90;99.90;;;;;;4862558;29;20029;-83
2023/06/22 09:15:38;;;;;;;12.57;11.20;;;22.60;99.90;;;;;;4862828;29;20105;-83
2023/06/22 09:18:04;;;;;;;13.20;10.23;;;22.60;99.90;;;;;;4862829;29;20044;-83
2023/06/22 09:20:29;;;;;;;11.82;10.63;;;22.70;99.90;;;;;;4862746;29;20025;-83
2023/06/22 09:22:55;;;;;;;12.40;11.13;;;22.70;99.90;;;;;;4862534;29;20029;-83
2023/06/22 09:25:20;;;;;;;11.63;10.13;;;22.70;99.90;;;;;;4862972;29;20447;-83
2023/06/22 09:27:47;;;;;;;11.02;9.90;;;22.70;99.90;;;;;;4861680;29;20049;-83
2023/06/22 09:30:13;;;;;;;8.73;7.93;;;22.90;99.90;;;;;;4862817;29;20029;-83
2023/06/22 09:32:38;;;;;;;8.68;7.72;;;22.80;99.90;;;;;;4862625;29;20025;-83
2023/06/22 09:35:09;;;;;;;9.45;8.60;;;22.90;99.90;;;;;;4861398;29;20025;-83
2023/06/22 09:37:35;;;;;;;9.63;7.97;;;22.90;99.90;;;;;;4862698;29;20112;-83
2023/06/22 09:40:04;;;;;;;10.40;9.25;;;22.80;99.90;;;;;;4862512;29;20026;-82
2023/06/22 09:42:29;;;;;;;10.65;9.18;;;22.90;99.90;;;;;;4862001;29;20057;-83
2023/06/22 09:44:55;;;;;;;12.32;9.27;;;22.90;99.90;;;;;;4861811;29;20092;-83
2023/06/22 09:47:21;;;;;;;11.55;8.35;;;23.00;99.90;;;;;;4862009;29;20081;-83
2023/06/22 09:49:46;;;;;;;9.90;8.90;;;23.00;99.90;;;;;;4861352;29;20036;-83
2023/06/22 09:52:12;;;;;;;11.55;9.85;;;23.00;99.90;;;;;;4861922;29;20494;-83
2023/06/22 09:54:37;;;;;;;12.93;9.27;;;23.10;99.90;;;;;;4862460;29;20378;-83
2023/06/22 09:57:03;;;;;;;12.10;9.65;;;23.10;99.90;;;;;;4861081;29;20116;-83
2023/06/22 09:59:29;;;;;;;14.13;9.20;;;23.10;99.90;;;;;;4862220;29;20061;-83
2023/06/22 10:01:54;;;;;;;8.65;7.88;;;23.10;99.90;;;;;;4861895;29;20037;-83
2023/06/22 10:04:20;;;;;;;12.75;7.82;;;23.20;99.90;;;;;;4861121;29;20093;-83
2023/06/22 10:06:45;;;;;;;8.40;7.60;;;23.10;99.90;;;;;;4861878;29;20136;-83
2023/06/22 10:09:11;;;;;;;11.20;9.05;;;23.20;99.90;;;;;;4861895;29;20025;-83
2023/06/22 10:11:36;;;;;;;14.05;10.00;;;23.40;99.90;;;;;;4861166;29;20041;-83
2023/06/22 10:14:04;;;;;;;11.35;9.82;;;23.10;99.90;;;;;;4861801;29;20030;-83
2023/06/22 10:16:35;;;;;;;11.75;10.38;;;23.20;99.90;;;;;;4861167;29;20162;-83
2023/06/22 10:19:01;;;;;;;12.30;10.82;;;23.40;99.90;;;;;;4861396;29;20042;-83
2023/06/22 10:21:29;;;;;;;11.68;10.25;;;23.20;99.90;;;;;;4861971;29;20513;-83
2023/06/22 10:23:56;;;;;;;21.33;12.32;;;23.20;99.90;;;;;;4860568;29;20494;-83
2023/06/22 10:26:22;;;;;;;9.63;8.63;;;23.30;99.90;;;;;;4861471;29;20444;-83
2023/06/22 10:28:47;;;;;;;11.73;10.57;;;23.20;99.90;;;;;;4861492;29;20030;-83
2023/06/22 10:31:13;;;;;;;12.88;11.60;;;23.20;99.90;;;;;;4860660;29;20117;-83
2023/06/22 10:33:41;;;;;;;11.15;10.15;;;23.30;99.90;;;;;;4861493;29;20033;-83
2023/06/22 10:36:07;;;;;;;10.35;9.25;;;23.30;99.90;;;;;;4861420;29;20112;-83
2023/06/22 10:38:32;;;;;;;12.90;11.52;;;23.30;99.90;;;;;;4860646;29;20128;-83
2023/06/22 10:40:58;;;;;;;16.65;13.63;;;23.30;99.90;;;;;;4860971;29;20037;-83
2023/06/22 10:43:23;;;;;;;17.50;13.68;;;23.40;99.90;;;;;;4861120;29;20033;-83
2023/06/22 10:45:49;;;;;;;16.25;14.13;;;23.30;99.90;;;;;;4860487;29;20372;-83
2023/06/22 10:48:14;;;;;;;16.65;12.90;;;23.30;99.90;;;;;;4860887;29;20045;-83
2023/06/22 10:50:40;;;;;;;17.73;14.68;;;23.30;99.90;;;;;;4861328;29;20030;-83
2023/06/22 10:53:06;;;;;;;17.23;14.13;;;23.30;99.90;;;;;;4860301;29;20116;-83
2023/06/22 10:55:31;;;;;;;16.40;14.82;;;23.30;99.90;;;;;;4861143;29;20033;-83
2023/06/22 10:57:57;;;;;;;16.77;15.07;;;23.30;99.90;;;;;;4861052;29;20443;-83
2023/06/22 11:00:22;;;;;;;14.57;12.73;;;23.30;99.90;;;;;;4860608;29;20056;-83
2023/06/22 11:02:48;;;;;;;15.32;13.73;;;23.30;99.90;;;;;;4860610;29;20034;-83
2023/06/22 11:05:14;;;;;;;17.13;14.50;;;23.40;99.90;;;;;;4860737;29;20097;-83
2023/06/22 11:07:44;;;;;;;13.75;12.45;;;23.30;99.90;;;;;;4860216;29;20132;-83
2023/06/22 11:10:10;;;;;;;20.02;15.38;;;23.40;99.90;;;;;;4861019;29;20037;-83
2023/06/22 11:12:36;;;;;;;14.18;12.88;;;23.30;99.90;;;;;;4860286;29;20443;-83
2023/06/22 11:15:02;;;;;;;15.02;13.45;;;23.30;99.90;;;;;;4860496;29;20109;-83
2023/06/22 11:17:27;;;;;;;12.90;11.13;;;23.30;99.90;;;;;;4860656;29;20473;-83
2023/06/22 11:19:53;;;;;;;12.00;9.80;;;23.30;99.90;;;;;;4859875;29;20022;-83
2023/06/22 11:22:18;;;;;;;12.35;11.20;;;23.30;99.90;;;;;;4860579;29;20068;-83
2023/06/22 11:24:44;;;;;;;10.63;9.60;;;23.20;99.90;;;;;;4860211;29;20050;-83
2023/06/22 11:27:10;;;;;;;10.80;9.52;;;23.30;99.90;;;;;;4859860;29;20041;-83
2023/06/22 11:29:35;;;;;;;9.05;8.10;;;23.30;99.90;;;;;;4860524;29;20036;-83
2023/06/22 11:32:01;;;;;;;8.82;7.43;;;23.30;99.90;;;;;;4860166;29;20033;-83
2023/06/22 11:34:27;;;;;;;11.05;7.20;;;23.30;99.90;;;;;;4860114;29;20067;-83
2023/06/22 11:36:53;;;;;;;7.30;6.60;;;23.30;99.90;;;;;;4860016;29;20037;-83
2023/06/22 11:39:19;;;;;;;7.82;7.15;;;23.30;99.90;;;;;;4860253;29;20034;-83
2023/06/22 11:41:45;;;;;;;8.75;6.82;;;23.40;99.90;;;;;;4859424;29;20406;-83
2023/06/22 11:44:10;;;;;;;7.40;6.82;;;23.40;99.90;;;;;;4860123;29;20026;-83
2023/06/22 11:46:37;;;;;;;7.18;6.47;;;23.40;99.90;;;;;;4860162;29;20425;-83
2023/06/22 11:49:04;;;;;;;8.40;7.55;;;23.40;99.90;;;;;;4859644;29;20030;-83
2023/06/22 11:51:31;;;;;;;9.23;8.10;;;23.40;99.90;;;;;;4860376;29;20018;-83
2023/06/22 11:53:57;;;;;;;12.75;8.13;;;23.40;99.90;;;;;;4860013;29;20395;-83
2023/06/22 11:56:22;;;;;;;11.43;8.27;;;23.40;99.90;;;;;;4859218;29;20030;-83
2023/06/22 11:58:48;;;;;;;9.00;8.10;;;23.40;99.90;;;;;;4859951;29;20546;-83
2023/06/22 12:01:14;;;;;;;12.68;8.07;;;23.50;99.90;;;;;;4859946;29;20037;-83
2023/06/22 12:03:41;;;;;;;8.38;7.57;;;23.40;99.90;;;;;;4859725;29;20398;-83
2023/06/22 12:06:06;;;;;;;7.35;6.65;;;23.40;99.90;;;;;;4859885;29;20105;-83
2023/06/22 12:08:32;;;;;;;8.05;6.82;;;23.50;99.90;;;;;;4859914;29;20038;-83
2023/06/22 12:10:57;;;;;;;6.68;6.03;;;23.40;99.90;;;;;;4858920;29;20030;-83
2023/06/22 12:13:23;;;;;;;7.70;6.90;;;23.40;99.90;;;;;;4859969;29;20025;-83
2023/06/22 12:15:48;;;;;;;8.60;6.88;;;23.40;99.90;;;;;;4859828;29;20475;-83
2023/06/22 12:18:14;;;;;;;6.93;6.22;;;23.40;99.90;;;;;;4860841;29;20045;-83
2023/06/22 12:20:40;;;;;;;6.90;6.30;;;23.50;99.90;;;;;;4863906;29;20034;-83
2023/06/22 12:23:06;;;;;;;8.45;7.63;;;23.40;99.90;;;;;;4862807;29;20081;-83
2023/06/22 12:25:31;;;;;;;11.63;8.05;;;23.40;99.90;;;;;;4863601;29;20534;-83
2023/06/22 12:27:57;;;;;;;9.88;7.68;;;23.40;99.90;;;;;;4863322;29;20037;-83